Time;durP1;ratioP1;P1;durP2;ratioP2;P2;SDS_P1;SDS_P2;PMS_P1;PMS_P2;Temp;Humidity;BMP_temperature;BMP_pressure;BME280_temperature;BME280_humidity;BME280_pressure;Samples;Min_cycle;Max_cycle;Signal;HPM_P1;HPM_P2
2023/06/05 00:00:00;;;;;;;79.80;77.30;;;12.60;99.90;;;;;;4973617;28;20195;-80
2023/06/05 00:02:27;;;;;;;80.23;77.70;;;12.60;99.90;;;;;;4989482;28;20200;-80
2023/06/05 00:04:53;;;;;;;85.50;82.80;;;12.60;99.90;;;;;;4989877;28;20249;-80
2023/06/05 00:07:19;;;;;;;89.53;86.80;;;12.70;99.90;;;;;;4989458;28;20302;-80
2023/06/05 00:09:45;;;;;;;93.57;90.67;;;12.70;99.90;;;;;;4989337;28;20718;-80
2023/06/05 00:12:11;;;;;;;88.90;86.10;;;12.70;99.90;;;;;;5006456;28;20428;-80
2023/06/05 00:14:37;;;;;;;92.30;89.17;;;12.70;99.90;;;;;;4972873;28;20184;-79
2023/06/05 00:17:03;;;;;;;89.63;86.80;;;12.70;99.90;;;;;;4957368;28;20183;-80
2023/06/05 00:19:30;;;;;;;87.07;84.30;;;12.70;99.90;;;;;;5006959;28;20187;-81
2023/06/05 00:21:57;;;;;;;83.57;80.97;;;12.70;99.90;;;;;;4973319;28;20194;-80
2023/06/05 00:24:22;;;;;;;85.33;82.63;;;12.60;99.90;;;;;;5006769;28;20188;-79
2023/06/05 00:26:48;;;;;;;89.70;86.90;;;12.60;99.90;;;;;;4957338;28;20217;-80
2023/06/05 00:29:14;;;;;;;94.07;91.17;;;12.50;99.90;;;;;;4989051;28;20191;-80
2023/06/05 00:31:40;;;;;;;91.40;88.33;;;12.50;99.90;;;;;;4957239;28;20634;-81
2023/06/05 00:34:06;;;;;;;95.83;92.80;;;12.50;99.90;;;;;;4973256;28;20175;-79
2023/06/05 00:36:32;;;;;;;95.23;92.23;;;12.40;99.90;;;;;;5006339;28;20629;-79
2023/06/05 00:38:58;;;;;;;96.70;93.70;;;12.40;99.90;;;;;;4975538;28;20274;-80
2023/06/05 00:41:24;;;;;;;91.37;88.57;;;12.50;99.90;;;;;;4960336;28;20282;-80
2023/06/05 00:43:50;;;;;;;89.97;87.17;;;12.40;99.90;;;;;;4976017;28;20235;-80
2023/06/05 00:46:16;;;;;;;95.07;92.07;;;12.40;99.90;;;;;;4992942;28;20812;-79
2023/06/05 00:48:43;;;;;;;95.40;92.47;;;12.40;99.90;;;;;;4976186;28;20207;-80
2023/06/05 00:51:14;;;;;;;93.83;90.93;;;12.50;99.90;;;;;;4992723;28;20254;-80
2023/06/05 00:53:40;;;;;;;93.80;90.90;;;12.50;99.90;;;;;;4992702;28;20250;-79
2023/06/05 00:56:06;;;;;;;91.47;88.67;;;12.50;99.90;;;;;;5010071;28;20820;-79
2023/06/05 00:58:31;;;;;;;91.73;88.93;;;12.50;99.90;;;;;;5009659;28;20781;-80
2023/06/05 01:00:58;;;;;;;94.87;91.97;;;12.50;99.90;;;;;;4960211;28;20211;-80
2023/06/05 01:03:24;;;;;;;90.30;87.47;;;12.50;99.90;;;;;;4992522;28;20241;-79
2023/06/05 01:05:51;;;;;;;89.70;86.90;;;12.50;99.90;;;;;;4992604;28;20225;-80
2023/06/05 01:08:20;;;;;;;87.63;84.83;;;12.50;99.90;;;;;;4975976;28;20200;-81
2023/06/05 01:10:46;;;;;;;91.03;88.20;;;12.40;99.90;;;;;;4992301;28;20373;-80
2023/06/05 01:13:24;;;;;;;87.53;84.80;;;12.40;99.90;;;;;;4992519;28;20179;-80
2023/06/05 01:15:52;;;;;;;85.00;82.17;;;12.40;99.90;;;;;;4992073;28;20532;-80
2023/06/05 01:18:18;;;;;;;77.60;75.10;;;12.30;99.90;;;;;;4992273;28;20207;-80
2023/06/05 01:20:44;;;;;;;87.77;85.03;;;12.30;99.90;;;;;;4978304;28;20581;-88
2023/06/05 01:23:10;;;;;;;86.90;84.20;;;12.30;99.90;;;;;;4979874;28;20183;-86
2023/06/05 01:25:36;;;;;;;79.57;77.03;;;12.30;99.90;;;;;;4995379;28;20176;-87
2023/06/05 01:28:08;;;;;;;84.80;82.00;;;12.40;99.90;;;;;;4979619;28;20215;-89
2023/06/05 01:30:46;;;;;;;84.00;81.37;;;12.30;99.90;;;;;;4995703;28;20194;-87
2023/06/05 01:33:20;;;;;;;80.93;78.43;;;12.30;99.90;;;;;;5013159;28;20171;-87
2023/06/05 01:35:51;;;;;;;78.87;76.37;;;12.30;99.90;;;;;;5013120;28;20194;-86
2023/06/05 01:38:18;;;;;;;81.83;79.23;;;12.30;99.90;;;;;;4980427;28;20206;-88
2023/06/05 01:40:45;;;;;;;79.73;77.23;;;12.30;99.90;;;;;;4995675;28;20305;-88
2023/06/05 01:43:12;;;;;;;79.47;76.67;;;12.30;99.90;;;;;;4995348;28;20287;-87
2023/06/05 01:45:40;;;;;;;79.83;77.30;;;12.30;99.90;;;;;;4963015;28;20238;-87
2023/06/05 01:48:11;;;;;;;82.23;79.63;;;12.30;99.90;;;;;;4996058;28;20683;-88
2023/06/05 01:50:37;;;;;;;105.77;102.53;;;12.40;99.90;;;;;;5012827;28;20172;-86
2023/06/05 01:53:04;;;;;;;129.10;125.17;;;12.40;99.90;;;;;;4995486;28;20279;-88
2023/06/05 01:55:30;;;;;;;122.90;119.20;;;12.50;99.90;;;;;;4995202;28;20203;-87
2023/06/05 01:57:56;;;;;;;119.40;115.77;;;12.60;99.90;;;;;;5011896;28;20278;-87
2023/06/05 02:00:22;;;;;;;117.73;114.13;;;12.60;99.90;;;;;;4993977;28;20690;-86
2023/06/05 02:02:49;;;;;;;117.67;114.07;;;12.60;99.90;;;;;;4978275;28;20187;-86
2023/06/05 02:05:17;;;;;;;107.13;103.93;;;12.70;99.90;;;;;;4978476;28;20190;-87
2023/06/05 02:07:49;;;;;;;108.47;104.97;;;12.60;99.90;;;;;;4978593;28;20211;-87
2023/06/05 02:10:15;;;;;;;107.70;104.07;;;12.60;99.90;;;;;;4994702;28;20211;-86
2023/06/05 02:12:44;;;;;;;103.43;100.23;;;12.50;99.90;;;;;;4962866;28;20548;-89
2023/06/05 02:15:14;;;;;;;106.03;102.77;;;12.60;99.90;;;;;;4995079;28;20241;-88
2023/06/05 02:17:53;;;;;;;99.27;95.80;;;12.50;99.90;;;;;;5012308;28;20663;-88
2023/06/05 02:20:25;;;;;;;95.07;92.10;;;12.50;99.90;;;;;;4979841;28;20743;-86
2023/06/05 02:22:51;;;;;;;100.10;97.00;;;12.40;99.90;;;;;;5012343;28;20175;-88
2023/06/05 02:25:18;;;;;;;93.37;90.57;;;12.40;99.90;;;;;;4978990;28;20179;-89
2023/06/05 02:27:44;;;;;;;92.83;89.90;;;12.30;99.90;;;;;;4994501;28;20242;-86
2023/06/05 02:30:11;;;;;;;87.90;85.17;;;12.20;99.90;;;;;;4978763;28;20187;-87
2023/06/05 02:32:41;;;;;;;83.10;80.33;;;12.20;99.90;;;;;;4994633;28;20270;-87
2023/06/05 02:35:11;;;;;;;57.07;55.13;;;12.20;99.90;;;;;;4993661;28;20256;-87
2023/06/05 02:37:41;;;;;;;34.60;33.43;;;12.10;99.90;;;;;;5011767;28;20183;-85
2023/06/05 02:40:08;;;;;;;30.83;29.70;;;12.10;99.90;;;;;;4979097;28;20172;-86
2023/06/05 02:42:35;;;;;;;30.23;29.23;;;12.10;99.90;;;;;;5011832;28;20187;-86
2023/06/05 02:45:01;;;;;;;31.40;30.30;;;12.20;99.90;;;;;;5011555;28;20238;-87
2023/06/05 02:47:27;;;;;;;31.40;30.30;;;12.20;99.90;;;;;;5011673;28;20218;-87
2023/06/05 02:49:52;;;;;;;29.03;27.97;;;12.10;99.90;;;;;;4978310;28;20195;-87
2023/06/05 02:52:18;;;;;;;32.77;31.67;;;12.20;99.90;;;;;;4978217;28;20183;-89
2023/06/05 02:54:44;;;;;;;31.53;30.43;;;12.20;99.90;;;;;;5010724;28;20183;-89
2023/06/05 02:57:10;;;;;;;29.60;28.63;;;12.10;99.90;;;;;;4994567;28;20523;-87
2023/06/05 02:59:39;;;;;;;28.97;27.53;;;12.00;99.90;;;;;;4962203;28;20218;-86
2023/06/05 03:02:08;;;;;;;28.33;27.43;;;12.10;99.90;;;;;;5010760;28;20196;-88
2023/06/05 03:04:34;;;;;;;28.57;27.67;;;12.10;99.90;;;;;;4994117;28;20191;-86
2023/06/05 03:07:03;;;;;;;31.73;30.63;;;12.10;99.90;;;;;;4978151;28;20704;-89
2023/06/05 03:09:32;;;;;;;30.23;29.10;;;12.10;99.90;;;;;;4994688;28;20195;-86
2023/06/05 03:11:58;;;;;;;30.77;29.77;;;12.20;99.90;;;;;;4977895;28;20195;-87
2023/06/05 03:14:26;;;;;;;30.47;29.47;;;12.30;99.90;;;;;;4993816;28;20700;-87
2023/06/05 03:16:53;;;;;;;33.87;32.77;;;12.30;99.90;;;;;;5011305;28;20341;-87
2023/06/05 03:19:20;;;;;;;31.90;30.83;;;12.40;99.90;;;;;;4977940;28;20183;-87
2023/06/05 03:21:47;;;;;;;33.37;32.27;;;12.50;99.90;;;;;;4977963;28;20270;-86
2023/06/05 03:24:14;;;;;;;34.07;32.97;;;12.60;99.90;;;;;;4976991;28;20194;-86
2023/06/05 03:26:40;;;;;;;38.93;37.63;;;12.60;99.90;;;;;;4993457;28;20207;-87
2023/06/05 03:29:07;;;;;;;37.17;35.37;;;12.50;99.90;;;;;;4993708;28;20179;-87
2023/06/05 03:31:33;;;;;;;37.53;36.33;;;12.40;99.90;;;;;;4977660;28;20183;-87
2023/06/05 03:33:59;;;;;;;37.80;36.60;;;12.30;99.90;;;;;;4961586;28;20649;-90
2023/06/05 03:36:29;;;;;;;36.63;35.43;;;12.30;99.90;;;;;;4993781;28;20185;-88
2023/06/05 03:38:56;;;;;;;34.17;32.97;;;12.30;99.90;;;;;;4977545;28;20646;-89
2023/06/05 03:41:22;;;;;;;37.47;36.23;;;12.40;99.90;;;;;;4993541;28;20171;-87
2023/06/05 03:43:49;;;;;;;35.63;34.53;;;12.30;99.90;;;;;;5009448;28;20271;-87
2023/06/05 03:46:18;;;;;;;33.97;32.87;;;12.30;99.90;;;;;;5011062;28;20179;-88
2023/06/05 03:48:48;;;;;;;35.57;34.37;;;12.20;99.90;;;;;;4993563;28;20191;-88
2023/06/05 03:51:18;;;;;;;34.47;33.37;;;12.20;99.90;;;;;;4993859;28;20167;-87
2023/06/05 03:53:54;;;;;;;36.67;35.47;;;12.20;99.90;;;;;;4978086;28;20590;-87
2023/06/05 03:56:21;;;;;;;33.17;32.07;;;12.20;99.90;;;;;;5010818;28;20183;-88
2023/06/05 03:58:48;;;;;;;37.23;36.03;;;12.20;99.90;;;;;;4993684;28;20192;-87
2023/06/05 04:01:14;;;;;;;34.23;33.03;;;12.20;99.90;;;;;;4977569;28;20184;-88
2023/06/05 04:03:40;;;;;;;34.43;33.33;;;12.30;99.90;;;;;;4993696;28;20184;-88
2023/06/05 04:06:08;;;;;;;34.70;33.60;;;12.30;99.90;;;;;;4993421;28;20245;-88
2023/06/05 04:08:34;;;;;;;39.47;38.13;;;12.30;99.90;;;;;;4977867;28;20215;-89
2023/06/05 04:11:00;;;;;;;37.47;36.17;;;12.30;99.90;;;;;;4977374;28;20633;-87
2023/06/05 04:13:26;;;;;;;36.90;35.70;;;12.20;99.90;;;;;;4994940;28;20184;-87
2023/06/05 04:15:52;;;;;;;24.50;23.57;;;12.20;99.90;;;;;;4996379;28;20176;-87
2023/06/05 04:18:18;;;;;;;11.43;10.93;;;12.20;99.90;;;;;;4997283;28;20190;-89
2023/06/05 04:20:43;;;;;;;6.03;5.83;;;12.20;99.90;;;;;;4965016;28;20187;-87
2023/06/05 04:23:09;;;;;;;8.90;6.20;;;12.20;99.90;;;;;;4997225;28;20398;-88
2023/06/05 04:25:35;;;;;;;5.30;5.10;;;12.20;99.90;;;;;;4996992;28;20845;-88
2023/06/05 04:28:01;;;;;;;4.87;4.43;;;12.30;99.90;;;;;;4964381;28;20203;-87
2023/06/05 04:30:29;;;;;;;5.20;4.80;;;12.30;99.90;;;;;;4964473;28;20187;-88
2023/06/05 04:32:55;;;;;;;5.97;5.77;;;12.40;99.90;;;;;;4997499;28;20318;-90
2023/06/05 04:35:22;;;;;;;5.53;5.23;;;12.40;99.90;;;;;;4996642;28;20218;-88
2023/06/05 04:37:48;;;;;;;5.40;5.10;;;12.40;99.90;;;;;;4996705;28;20183;-87
2023/06/05 04:40:16;;;;;;;5.07;4.87;;;12.30;99.90;;;;;;4980812;28;20194;-88
2023/06/05 04:42:41;;;;;;;4.80;4.60;;;12.30;99.90;;;;;;4996906;28;20254;-87
2023/06/05 04:45:08;;;;;;;5.67;5.40;;;12.30;99.90;;;;;;4980450;28;20231;-86
2023/06/05 04:47:34;;;;;;;5.43;5.13;;;12.40;99.90;;;;;;5013953;28;20226;-87
2023/06/05 04:50:05;;;;;;;5.40;4.90;;;12.50;99.90;;;;;;5013028;28;20237;-86
2023/06/05 04:52:32;;;;;;;6.13;5.83;;;12.60;99.90;;;;;;4996551;28;20176;-86
2023/06/05 04:55:01;;;;;;;6.37;6.03;;;12.70;99.90;;;;;;5013871;28;20636;-87
2023/06/05 04:57:27;;;;;;;8.80;8.40;;;12.70;99.90;;;;;;4996685;28;20255;-86
2023/06/05 04:59:54;;;;;;;8.33;7.83;;;12.70;99.90;;;;;;4996281;28;20176;-87
2023/06/05 05:02:21;;;;;;;8.30;7.90;;;12.60;99.90;;;;;;4995921;28;20190;-87
2023/06/05 05:04:47;;;;;;;7.73;7.50;;;12.60;99.90;;;;;;4979373;28;20238;-88
2023/06/05 05:07:16;;;;;;;8.23;7.90;;;12.50;99.90;;;;;;4979985;28;20207;-87
2023/06/05 05:09:42;;;;;;;8.57;8.17;;;12.50;99.90;;;;;;4980100;28;20191;-88
2023/06/05 05:12:09;;;;;;;9.00;8.27;;;12.60;99.90;;;;;;4964387;28;20253;-87
2023/06/05 05:14:36;;;;;;;8.67;8.37;;;12.60;99.90;;;;;;4996358;28;20179;-87
2023/06/05 05:17:02;;;;;;;8.90;8.50;;;12.60;99.90;;;;;;4995926;28;20202;-88
2023/06/05 05:19:28;;;;;;;9.73;9.33;;;12.70;99.90;;;;;;5013482;28;20210;-88
2023/06/05 05:21:57;;;;;;;8.67;8.27;;;12.80;99.90;;;;;;4979596;28;20214;-89
2023/06/05 05:24:24;;;;;;;9.90;9.50;;;12.70;99.90;;;;;;4979281;28;20191;-87
2023/06/05 05:26:52;;;;;;;11.70;11.27;;;12.60;99.90;;;;;;4995674;28;20218;-87
2023/06/05 05:29:17;;;;;;;11.00;10.60;;;12.50;99.90;;;;;;4994897;28;20189;-86
2023/06/05 05:31:44;;;;;;;13.67;13.07;;;12.50;99.90;;;;;;4995461;28;20278;-88
2023/06/05 05:34:10;;;;;;;11.87;11.23;;;12.60;99.90;;;;;;4995308;28;20183;-87
2023/06/05 05:36:39;;;;;;;11.53;11.13;;;12.60;99.90;;;;;;4995138;28;20269;-87
2023/06/05 05:39:07;;;;;;;11.87;11.37;;;12.70;99.90;;;;;;4964180;28;20229;-88
2023/06/05 05:41:32;;;;;;;11.93;11.53;;;12.80;99.90;;;;;;5011842;28;20267;-87
2023/06/05 05:43:58;;;;;;;14.13;13.63;;;12.80;99.90;;;;;;4978640;28;20335;-85
2023/06/05 05:46:24;;;;;;;12.07;11.63;;;12.80;99.90;;;;;;4978647;28;20215;-89
2023/06/05 05:48:51;;;;;;;13.73;13.23;;;12.90;99.90;;;;;;4995081;28;20209;-86
2023/06/05 05:51:17;;;;;;;13.50;12.90;;;12.80;99.90;;;;;;4995259;28;20660;-88
2023/06/05 05:53:43;;;;;;;15.23;14.53;;;12.90;99.90;;;;;;5012049;28;20417;-87
2023/06/05 05:56:08;;;;;;;14.23;13.73;;;13.00;99.90;;;;;;4978022;28;20219;-87
2023/06/05 05:58:34;;;;;;;13.30;12.80;;;13.10;99.90;;;;;;4978372;28;20187;-86
2023/06/05 06:01:00;;;;;;;12.07;11.57;;;13.10;99.90;;;;;;4994675;28;20226;-87
2023/06/05 06:03:29;;;;;;;9.43;9.03;;;13.10;99.90;;;;;;4978185;28;20774;-87
2023/06/05 06:05:57;;;;;;;9.80;9.20;;;13.20;99.90;;;;;;5011565;28;20179;-85
2023/06/05 06:08:22;;;;;;;8.63;8.23;;;13.10;99.90;;;;;;5011507;28;20235;-89
2023/06/05 06:10:48;;;;;;;7.77;7.37;;;13.10;99.90;;;;;;4978592;28;20270;-89
2023/06/05 06:13:14;;;;;;;8.87;8.57;;;13.30;99.90;;;;;;5011782;28;20214;-90
2023/06/05 06:15:40;;;;;;;7.97;7.47;;;13.20;99.90;;;;;;4978326;28;20262;-87
2023/06/05 06:18:06;;;;;;;7.50;7.13;;;13.20;99.90;;;;;;4994765;28;20241;-86
2023/06/05 06:20:33;;;;;;;6.97;6.67;;;13.30;99.90;;;;;;5011802;28;20175;-89
2023/06/05 06:22:59;;;;;;;6.83;6.63;;;13.40;99.90;;;;;;4994569;28;20184;-88
2023/06/05 06:25:31;;;;;;;6.20;5.97;;;13.30;99.90;;;;;;4978796;28;20186;-87
2023/06/05 06:28:01;;;;;;;7.90;7.60;;;13.40;99.90;;;;;;4979521;28;20195;-88
2023/06/05 06:30:27;;;;;;;7.70;7.30;;;13.40;99.90;;;;;;5012041;28;20190;-86
2023/06/05 06:32:57;;;;;;;6.00;5.70;;;13.30;99.90;;;;;;4994641;28;20183;-89
2023/06/05 06:35:26;;;;;;;6.83;6.43;;;13.40;99.90;;;;;;4977968;28;20172;-88
2023/06/05 06:37:56;;;;;;;6.97;6.57;;;13.30;99.90;;;;;;4977975;28;20179;-86
2023/06/05 06:40:22;;;;;;;6.87;6.57;;;13.40;99.90;;;;;;4978040;28;20234;-87
2023/06/05 06:42:49;;;;;;;6.43;6.03;;;13.60;99.90;;;;;;4993965;28;20187;-88
2023/06/05 06:45:15;;;;;;;6.70;6.40;;;13.70;99.90;;;;;;4993004;28;20448;-87
2023/06/05 06:47:42;;;;;;;6.07;5.67;;;13.70;99.90;;;;;;4977429;28;20222;-88
2023/06/05 06:50:08;;;;;;;7.93;6.10;;;13.80;99.90;;;;;;4994129;28;20772;-86
2023/06/05 06:52:34;;;;;;;6.47;6.07;;;13.70;99.90;;;;;;4994191;28;20242;-88
2023/06/05 06:55:00;;;;;;;6.20;5.63;;;13.90;99.90;;;;;;4977701;28;20184;-88
2023/06/05 06:57:29;;;;;;;6.03;5.83;;;14.00;99.90;;;;;;4993881;28;20267;-88
2023/06/05 06:59:54;;;;;;;5.70;5.40;;;13.90;99.90;;;;;;4977614;28;20632;-89
2023/06/05 07:02:25;;;;;;;6.13;5.73;;;13.90;99.90;;;;;;4961632;28;20186;-87
2023/06/05 07:04:53;;;;;;;5.50;5.30;;;13.90;99.90;;;;;;4995040;28;20172;-91
2023/06/05 07:07:21;;;;;;;5.87;5.67;;;14.10;99.90;;;;;;5010927;28;20214;-89
2023/06/05 07:09:51;;;;;;;5.43;5.23;;;14.20;99.90;;;;;;4977680;28;20219;-90
2023/06/05 07:12:19;;;;;;;6.20;5.77;;;14.00;99.90;;;;;;4993531;28;20176;-89
2023/06/05 07:14:45;;;;;;;5.90;5.40;;;14.10;99.90;;;;;;4993564;28;20258;-90
2023/06/05 07:17:10;;;;;;;6.03;5.73;;;14.10;99.90;;;;;;4993543;28;20229;-89
2023/06/05 07:19:36;;;;;;;5.23;4.97;;;14.00;99.90;;;;;;4993927;28;20211;-89
2023/06/05 07:22:06;;;;;;;6.07;5.67;;;13.90;99.90;;;;;;4961384;28;20183;-91
2023/06/05 07:24:35;;;;;;;5.27;5.03;;;14.10;99.90;;;;;;4993925;28;20259;-92
2023/06/05 07:27:02;;;;;;;6.13;5.83;;;14.30;99.90;;;;;;4993415;28;20210;-91
2023/06/05 07:29:28;;;;;;;6.30;5.93;;;14.40;99.90;;;;;;4977275;28;20237;-90
2023/06/05 07:31:55;;;;;;;6.20;5.90;;;14.40;99.90;;;;;;4992853;28;20187;-91
2023/06/05 07:34:23;;;;;;;5.53;5.33;;;14.30;99.90;;;;;;4992705;28;20587;-89
2023/06/05 07:36:51;;;;;;;5.30;5.10;;;14.50;99.90;;;;;;4992223;28;20659;-90
2023/06/05 07:39:18;;;;;;;4.93;4.73;;;14.50;99.90;;;;;;4992913;28;20628;-88
2023/06/05 07:41:44;;;;;;;6.13;5.83;;;14.50;99.90;;;;;;4993412;28;20193;-89
2023/06/05 07:44:11;;;;;;;5.80;5.47;;;14.60;99.90;;;;;;4977041;28;20235;-89
2023/06/05 07:46:40;;;;;;;4.97;4.77;;;14.80;99.90;;;;;;4993643;28;20207;-90
2023/06/05 07:49:06;;;;;;;6.43;6.07;;;14.90;99.90;;;;;;4981205;28;20183;-89
2023/06/05 07:51:37;;;;;;;7.67;7.27;;;14.60;99.90;;;;;;4965028;28;20195;-88
2023/06/05 07:54:10;;;;;;;6.33;6.13;;;14.20;99.90;;;;;;4982033;28;20233;-90
2023/06/05 07:56:38;;;;;;;6.80;6.40;;;14.40;99.90;;;;;;5015075;28;20191;-89
2023/06/05 07:59:05;;;;;;;7.63;7.23;;;14.70;99.90;;;;;;4982482;28;20322;-86
2023/06/05 08:01:38;;;;;;;9.93;9.53;;;14.70;99.90;;;;;;4997920;28;20178;-91
2023/06/05 08:04:05;;;;;;;9.77;9.37;;;14.60;99.90;;;;;;4997894;28;20183;-92
2023/06/05 08:06:37;;;;;;;9.80;9.40;;;14.50;99.90;;;;;;4981153;28;20219;-91
2023/06/05 08:09:04;;;;;;;10.93;10.43;;;14.80;99.90;;;;;;4997073;28;20444;-89
2023/06/05 08:11:30;;;;;;;8.57;8.27;;;15.10;99.90;;;;;;5012585;28;20696;-91
2023/06/05 08:13:56;;;;;;;11.27;10.70;;;15.10;99.90;;;;;;5012369;28;20179;-89
2023/06/05 08:16:22;;;;;;;12.30;11.80;;;14.80;99.90;;;;;;4978626;28;20211;-85
2023/06/05 08:18:48;;;;;;;13.83;13.23;;;15.00;99.90;;;;;;4978989;28;20188;-88
2023/06/05 08:21:14;;;;;;;12.87;12.43;;;15.00;99.90;;;;;;5012274;28;20442;-88
2023/06/05 08:23:40;;;;;;;16.27;15.30;;;14.80;99.90;;;;;;5011960;28;20195;-89
2023/06/05 08:26:10;;;;;;;15.27;14.57;;;15.00;99.90;;;;;;4978929;28;20735;-90
2023/06/05 08:28:40;;;;;;;17.67;16.97;;;15.00;99.90;;;;;;4964484;28;20191;-89
2023/06/05 08:31:06;;;;;;;18.17;17.37;;;15.00;99.90;;;;;;4994800;28;20183;-87
2023/06/05 08:33:36;;;;;;;15.17;14.57;;;15.10;99.90;;;;;;4995052;28;20203;-89
2023/06/05 08:36:03;;;;;;;18.87;18.13;;;15.10;99.90;;;;;;4995133;28;20721;-87
2023/06/05 08:38:36;;;;;;;18.67;17.87;;;15.30;99.90;;;;;;5012696;28;20189;-88
2023/06/05 08:41:12;;;;;;;18.47;17.77;;;15.50;99.90;;;;;;5012404;28;20170;-88
2023/06/05 08:43:41;;;;;;;18.83;18.13;;;15.80;99.90;;;;;;5011126;28;20180;-89
2023/06/05 08:46:09;;;;;;;19.57;18.87;;;16.50;99.90;;;;;;5011130;28;20179;-91
2023/06/05 08:48:46;;;;;;;20.53;19.63;;;16.60;99.90;;;;;;5011895;28;20194;-89
2023/06/05 08:51:15;;;;;;;20.70;20.00;;;16.20;99.90;;;;;;4995144;28;20182;-90
2023/06/05 08:53:44;;;;;;;23.23;22.20;;;16.30;99.90;;;;;;5012971;28;20207;-90
2023/06/05 08:56:11;;;;;;;22.40;21.37;;;16.30;99.90;;;;;;4996020;28;20263;-87
2023/06/05 08:58:37;;;;;;;22.80;21.93;;;16.50;99.90;;;;;;4995348;28;20184;-88
2023/06/05 09:01:03;;;;;;;22.87;21.97;;;16.60;99.90;;;;;;4995629;28;20183;-87
2023/06/05 09:03:29;;;;;;;22.63;21.83;;;16.60;99.90;;;;;;4963376;28;20539;-87
2023/06/05 09:05:55;;;;;;;20.17;19.47;;;16.50;99.90;;;;;;4995332;28;20180;-84
2023/06/05 09:08:32;;;;;;;20.40;19.67;;;16.60;99.90;;;;;;4995047;28;20215;-86
2023/06/05 09:11:27;;;;;;;20.90;20.00;;;16.40;99.90;;;;;;4994858;28;20168;-88
2023/06/05 09:13:55;;;;;;;23.47;22.47;;;16.30;99.90;;;;;;4994764;28;20188;-89
2023/06/05 09:16:22;;;;;;;20.30;19.60;;;16.60;99.90;;;;;;5011630;28;20241;-89
2023/06/05 09:18:56;;;;;;;20.80;20.00;;;17.00;99.90;;;;;;4994599;28;20203;-88
2023/06/05 09:21:28;;;;;;;21.83;21.03;;;16.60;99.90;;;;;;4995615;28;20305;-88
2023/06/05 09:24:14;;;;;;;21.93;21.13;;;16.40;99.90;;;;;;4979409;28;20171;-88
2023/06/05 09:27:00;;;;;;;23.50;22.70;;;16.60;99.90;;;;;;5012386;28;20199;-87
2023/06/05 09:29:36;;;;;;;22.70;21.70;;;16.70;99.90;;;;;;4977999;28;20206;-88
2023/06/05 09:32:19;;;;;;;32.50;31.30;;;17.10;99.90;;;;;;4977006;28;20775;-88
2023/06/05 09:34:45;;;;;;;30.83;29.63;;;17.40;99.90;;;;;;5010769;28;20194;-88
2023/06/05 09:37:12;;;;;;;40.73;39.40;;;17.70;99.90;;;;;;4976760;28;20617;-88
2023/06/05 09:39:39;;;;;;;49.17;47.47;;;17.80;99.90;;;;;;4993459;28;20325;-86
2023/06/05 09:42:06;;;;;;;55.40;53.20;;;17.70;99.90;;;;;;4976772;28;20179;-86
2023/06/05 09:44:34;;;;;;;69.33;67.00;;;17.80;99.90;;;;;;5009887;28;20229;-87
2023/06/05 09:47:04;;;;;;;84.90;82.27;;;18.10;99.90;;;;;;4976789;28;20755;-87
2023/06/05 09:49:31;;;;;;;69.93;67.60;;;18.90;99.90;;;;;;4992216;28;20547;-86
2023/06/05 09:52:01;;;;;;;81.57;78.90;;;18.50;99.90;;;;;;4992218;28;20682;-86
2023/06/05 09:54:31;;;;;;;95.87;92.83;;;18.10;99.90;;;;;;4992451;28;20776;-87
2023/06/05 09:57:01;;;;;;;110.90;107.40;;;18.50;99.90;;;;;;4992054;28;20175;-87
2023/06/05 09:59:32;;;;;;;113.57;109.83;;;18.90;99.90;;;;;;5009668;28;20175;-86
2023/06/05 10:02:07;;;;;;;108.13;104.80;;;18.70;99.90;;;;;;5009290;28;20167;-86
2023/06/05 10:04:44;;;;;;;112.60;109.10;;;18.80;99.90;;;;;;4992490;28;20171;-86
2023/06/05 10:07:11;;;;;;;114.23;110.73;;;18.30;99.90;;;;;;4992763;28;20203;-86
2023/06/05 10:09:37;;;;;;;113.10;109.13;;;18.80;99.90;;;;;;4991983;28;20194;-87
2023/06/05 10:12:04;;;;;;;90.80;87.90;;;19.30;99.90;;;;;;5009796;28;20229;-87
2023/06/05 10:14:29;;;;;;;84.17;81.40;;;19.50;99.90;;;;;;5009364;28;20203;-86
2023/06/05 10:16:57;;;;;;;76.37;73.73;;;20.60;99.90;;;;;;5010001;28;20679;-86
2023/06/05 10:19:24;;;;;;;65.07;63.03;;;21.20;99.90;;;;;;5010238;28;20187;-87
2023/06/05 10:21:50;;;;;;;40.73;39.40;;;20.80;99.90;;;;;;4978150;28;20799;-87
2023/06/05 10:24:27;;;;;;;37.67;36.37;;;20.80;99.90;;;;;;4993985;28;20179;-87
2023/06/05 10:27:16;;;;;;;34.60;33.40;;;21.30;99.90;;;;;;4993662;28;20195;-87
2023/06/05 10:29:47;;;;;;;26.27;25.33;;;20.90;99.90;;;;;;5011170;28;20175;-87
2023/06/05 10:32:28;;;;;;;23.77;22.87;;;20.30;99.90;;;;;;4994292;28;20180;-86
2023/06/05 10:35:32;;;;;;;21.67;20.87;;;20.00;99.90;;;;;;4993934;28;20278;-86
2023/06/05 10:38:10;;;;;;;25.27;24.27;;;19.70;99.90;;;;;;4915118;29;20208;-88
2023/06/05 10:40:36;;;;;;;24.17;23.30;;;19.10;99.90;;;;;;4985556;28;20187;-87
2023/06/05 10:43:29;;;;;;;28.60;27.63;;;18.70;99.90;;;;;;4977926;28;20179;-88
2023/06/05 10:45:56;;;;;;;27.13;25.97;;;17.70;99.90;;;;;;4993409;28;20223;-86
2023/06/05 10:48:42;;;;;;;28.80;27.87;;;17.90;99.90;;;;;;4961007;28;20215;-86
2023/06/05 10:51:37;;;;;;;29.70;28.60;;;18.00;99.90;;;;;;4993150;28;20268;-86
2023/06/05 10:54:05;;;;;;;35.37;34.03;;;17.80;99.90;;;;;;5010847;28;20210;-89
2023/06/05 10:56:52;;;;;;;30.40;29.33;;;17.60;99.90;;;;;;4977535;28;20183;-87
2023/06/05 10:59:23;;;;;;;41.80;40.20;;;17.50;99.90;;;;;;4992315;28;20653;-88
2023/06/05 11:02:16;;;;;;;44.47;42.83;;;17.00;99.90;;;;;;5010187;28;20210;-87
2023/06/05 11:04:48;;;;;;;38.90;37.53;;;17.50;99.90;;;;;;4993293;28;20254;-89
2023/06/05 11:07:17;;;;;;;35.57;34.30;;;18.50;99.90;;;;;;4993161;28;20647;-88
2023/06/05 11:10:06;;;;;;;52.47;50.63;;;18.10;99.90;;;;;;4976836;28;20193;-87
2023/06/05 11:12:35;;;;;;;38.83;37.43;;;17.10;99.90;;;;;;4981223;28;20195;-89
2023/06/05 11:15:01;;;;;;;40.10;38.67;;;17.00;99.90;;;;;;4992469;28;20172;-89
2023/06/05 11:17:38;;;;;;;41.70;40.10;;;16.40;99.90;;;;;;4992832;28;20250;-88
2023/06/05 11:20:28;;;;;;;48.70;47.07;;;16.40;99.90;;;;;;4977763;28;20176;-89
2023/06/05 11:22:53;;;;;;;52.87;51.17;;;16.20;99.90;;;;;;4992618;28;20209;-89
2023/06/05 11:25:26;;;;;;;66.70;64.50;;;16.40;99.90;;;;;;4993552;28;20187;-89
2023/06/05 11:28:05;;;;;;;74.27;71.87;;;17.50;99.90;;;;;;4993118;28;20222;-87
2023/06/05 11:30:33;;;;;;;59.60;57.60;;;17.00;99.90;;;;;;4976929;28;20278;-90
2023/06/05 11:33:15;;;;;;;77.83;75.23;;;16.60;99.90;;;;;;4993148;28;20197;-88
2023/06/05 11:35:43;;;;;;;63.23;61.00;;;16.80;99.90;;;;;;4994363;28;20267;-86
2023/06/05 11:38:13;;;;;;;68.77;66.43;;;17.20;99.90;;;;;;5009562;28;20175;-88
2023/06/05 11:40:40;;;;;;;78.87;76.27;;;16.80;99.90;;;;;;5010383;28;20183;-90
2023/06/05 11:43:08;;;;;;;66.33;64.03;;;17.10;99.90;;;;;;5010342;28;20182;-88
2023/06/05 11:45:40;;;;;;;79.27;76.63;;;16.80;99.90;;;;;;4976442;28;20235;-89
2023/06/05 11:48:15;;;;;;;74.37;71.87;;;17.10;99.90;;;;;;5007890;28;20207;-88
2023/06/05 11:50:58;;;;;;;92.40;89.30;;;17.30;99.90;;;;;;5009121;28;20278;-87
2023/06/05 11:53:25;;;;;;;90.43;87.53;;;17.70;99.90;;;;;;4992703;28;20167;-88
2023/06/05 11:58:23;;;;;;;72.13;69.73;;;17.70;99.90;;;;;;4992559;28;20835;-86
2023/06/05 12:00:50;;;;;;;64.43;62.30;;;17.80;99.90;;;;;;4993061;28;20283;-87
2023/06/05 12:03:22;;;;;;;71.13;68.73;;;18.00;99.90;;;;;;5010098;28;20637;-87
2023/06/05 12:05:49;;;;;;;63.93;61.83;;;17.80;99.90;;;;;;4993413;28;20207;-86
2023/06/05 12:08:35;;;;;;;54.83;52.90;;;17.80;99.90;;;;;;4976462;28;20217;-87
2023/06/05 12:11:03;;;;;;;58.30;56.27;;;18.00;99.90;;;;;;4992854;28;20179;-87
2023/06/05 12:13:49;;;;;;;50.30;48.53;;;17.90;99.90;;;;;;4976994;28;20222;-88
2023/06/05 12:16:16;;;;;;;50.93;49.10;;;18.00;99.90;;;;;;4976452;28;20175;-86
2023/06/05 12:18:43;;;;;;;45.13;43.53;;;18.10;99.90;;;;;;5009799;28;20210;-86
2023/06/05 12:21:22;;;;;;;49.97;48.20;;;18.20;99.90;;;;;;4992219;28;20199;-87
2023/06/05 12:23:49;;;;;;;47.50;45.47;;;18.80;99.90;;;;;;4992663;28;20192;-87
2023/06/05 12:26:15;;;;;;;38.57;37.13;;;18.30;99.90;;;;;;4976641;28;20303;-88
2023/06/05 12:28:43;;;;;;;38.90;37.50;;;17.80;99.90;;;;;;4993215;28;20251;-88
2023/06/05 12:31:09;;;;;;;35.07;33.77;;;17.50;99.90;;;;;;4992839;28;20625;-88
2023/06/05 12:33:48;;;;;;;36.73;35.50;;;17.90;99.90;;;;;;5010961;28;20183;-87
2023/06/05 12:36:14;;;;;;;33.70;32.50;;;18.20;99.90;;;;;;4996554;28;20254;-88
2023/06/05 12:38:41;;;;;;;36.50;35.10;;;17.90;99.90;;;;;;4996259;28;20290;-87
2023/06/05 12:41:10;;;;;;;40.67;39.27;;;18.10;99.90;;;;;;5012850;28;20234;-86